Time;durP1;ratioP1;P1;durP2;ratioP2;P2;SDS_P1;SDS_P2;PMS_P1;PMS_P2;Temp;Humidity;BMP_temperature;BMP_pressure;BME280_temperature;BME280_humidity;BME280_pressure;Samples;Min_cycle;Max_cycle;Signal;HPM_P1;HPM_P2
2023/07/27 00:00:42;;;;;;;6.20;4.67;;;19.10;99.90;;;;;;5088328;28;20177;-74
2023/07/27 00:03:08;;;;;;;5.00;4.00;;;19.00;99.90;;;;;;5104470;28;20577;-75
2023/07/27 00:05:33;;;;;;;6.67;4.93;;;19.00;99.90;;;;;;5088085;28;20173;-81
2023/07/27 00:07:59;;;;;;;5.17;4.00;;;19.00;99.90;;;;;;5088412;28;20201;-81
2023/07/27 00:10:25;;;;;;;7.27;4.13;;;18.90;99.90;;;;;;5088394;28;20194;-79
2023/07/27 00:12:51;;;;;;;4.07;3.67;;;18.90;99.90;;;;;;5103510;28;20479;-74
2023/07/27 00:15:17;;;;;;;6.30;4.87;;;18.80;99.90;;;;;;5088023;28;20202;-81
2023/07/27 00:17:42;;;;;;;4.43;3.90;;;18.80;99.90;;;;;;5103938;28;20547;-74
2023/07/27 00:20:09;;;;;;;4.17;3.87;;;18.80;99.90;;;;;;5104160;28;20538;-81
2023/07/27 00:22:34;;;;;;;5.20;3.77;;;18.80;99.90;;;;;;5103646;28;20253;-75
2023/07/27 00:25:00;;;;;;;5.20;4.70;;;18.80;99.90;;;;;;5086411;28;20423;-74
2023/07/27 00:27:25;;;;;;;4.57;3.60;;;18.70;99.90;;;;;;5103541;28;20201;-81
2023/07/27 00:29:51;;;;;;;3.70;3.40;;;18.70;99.90;;;;;;5103563;28;20176;-74
2023/07/27 00:32:17;;;;;;;5.30;3.80;;;18.70;99.90;;;;;;5088268;28;20202;-75
2023/07/27 00:34:42;;;;;;;4.00;3.70;;;18.60;99.90;;;;;;5103435;28;20183;-79
2023/07/27 00:37:08;;;;;;;3.97;3.47;;;18.50;99.90;;;;;;5103639;28;20263;-74
2023/07/27 00:39:35;;;;;;;4.20;3.67;;;18.50;99.90;;;;;;5087819;28;20175;-75
2023/07/27 00:42:00;;;;;;;4.43;4.03;;;18.50;99.90;;;;;;5087768;28;20238;-74
2023/07/27 00:44:26;;;;;;;4.60;3.27;;;18.50;99.90;;;;;;5103116;28;20690;-80
2023/07/27 00:46:52;;;;;;;3.93;3.30;;;18.40;99.90;;;;;;5103491;28;20194;-81
2023/07/27 00:49:19;;;;;;;5.03;3.67;;;18.40;99.90;;;;;;5103224;28;20181;-74
2023/07/27 00:51:45;;;;;;;4.00;3.60;;;18.40;99.90;;;;;;5086193;28;20450;-80
2023/07/27 00:54:13;;;;;;;3.90;3.27;;;18.40;99.90;;;;;;5102939;28;20433;-80
2023/07/27 00:56:39;;;;;;;4.30;3.70;;;18.30;99.90;;;;;;5087458;28;20760;-81
2023/07/27 00:59:05;;;;;;;4.77;3.60;;;18.40;99.90;;;;;;5102729;28;20482;-80
2023/07/27 01:01:31;;;;;;;3.53;3.23;;;18.40;99.90;;;;;;5087779;28;20188;-74
2023/07/27 01:03:58;;;;;;;4.40;4.00;;;18.40;99.90;;;;;;5087188;28;20830;-74
2023/07/27 01:06:24;;;;;;;3.87;3.57;;;18.40;99.90;;;;;;5087706;28;21121;-80
2023/07/27 01:08:51;;;;;;;5.07;3.50;;;18.40;99.90;;;;;;5087226;28;20519;-80
2023/07/27 01:11:33;;;;;;;4.20;3.80;;;18.40;99.90;;;;;;5102945;28;20406;-74
2023/07/27 01:14:31;;;;;;;3.70;3.40;;;18.30;99.90;;;;;;5086908;28;20941;-74
2023/07/27 01:17:19;;;;;;;6.17;5.03;;;18.30;99.90;;;;;;5086932;28;20482;-80
2023/07/27 01:20:08;;;;;;;4.93;3.97;;;18.20;99.90;;;;;;5102323;28;20406;-81
2023/07/27 01:22:33;;;;;;;4.80;4.40;;;18.20;99.90;;;;;;5087177;28;20469;-81
2023/07/27 01:25:20;;;;;;;4.20;3.80;;;18.20;99.90;;;;;;5085504;28;21108;-80
2023/07/27 01:28:18;;;;;;;4.93;3.90;;;18.10;99.90;;;;;;5086774;28;20208;-75
2023/07/27 01:31:00;;;;;;;4.47;3.77;;;18.10;99.90;;;;;;5102086;28;20964;-74
2023/07/27 01:33:37;;;;;;;4.33;3.80;;;18.00;99.90;;;;;;5086817;28;20441;-81
2023/07/27 01:36:09;;;;;;;3.63;3.33;;;18.00;99.90;;;;;;5086980;28;20404;-81
2023/07/27 01:38:39;;;;;;;5.63;3.50;;;18.00;99.90;;;;;;5086121;28;20523;-75
2023/07/27 01:41:06;;;;;;;5.93;4.10;;;17.90;99.90;;;;;;5087169;28;20902;-74
2023/07/27 01:43:33;;;;;;;4.73;4.20;;;17.90;99.90;;;;;;5102439;28;20481;-74
2023/07/27 01:46:01;;;;;;;4.80;4.30;;;17.90;99.90;;;;;;5086177;28;20408;-74
2023/07/27 01:48:27;;;;;;;4.60;4.20;;;17.90;99.90;;;;;;5102094;28;20453;-74
2023/07/27 01:50:54;;;;;;;4.43;3.80;;;17.90;99.90;;;;;;5086338;28;20408;-74
2023/07/27 01:53:22;;;;;;;5.53;4.60;;;17.90;99.90;;;;;;5086453;28;20477;-75
2023/07/27 01:55:49;;;;;;;6.87;4.33;;;17.90;99.90;;;;;;5086090;28;20397;-81
2023/07/27 01:58:16;;;;;;;6.57;4.77;;;17.90;99.90;;;;;;5101733;28;20727;-74
2023/07/27 02:00:42;;;;;;;4.93;4.30;;;17.90;99.90;;;;;;5101838;28;20512;-74
2023/07/27 02:03:10;;;;;;;7.40;4.83;;;17.90;99.90;;;;;;5086727;28;20526;-74
2023/07/27 02:05:35;;;;;;;8.93;4.87;;;17.90;99.90;;;;;;5101138;28;20500;-81
2023/07/27 02:08:01;;;;;;;5.77;4.57;;;17.90;99.90;;;;;;5085961;28;20536;-74
2023/07/27 02:10:29;;;;;;;7.57;5.97;;;17.90;99.90;;;;;;5086201;28;20176;-74
2023/07/27 02:13:08;;;;;;;8.17;4.90;;;17.90;99.90;;;;;;5085904;28;20192;-80
2023/07/27 02:15:39;;;;;;;7.30;5.63;;;17.90;99.90;;;;;;5085530;28;20878;-80
2023/07/27 02:18:18;;;;;;;4.90;4.50;;;17.90;99.90;;;;;;5101803;28;20969;-74
2023/07/27 02:20:44;;;;;;;4.83;4.33;;;17.90;99.90;;;;;;5085853;28;20972;-73
2023/07/27 02:23:11;;;;;;;5.63;5.03;;;17.90;99.90;;;;;;5086103;28;20504;-74
2023/07/27 02:25:36;;;;;;;5.80;5.20;;;17.90;99.90;;;;;;5100098;28;20430;-74
2023/07/27 02:28:02;;;;;;;7.13;5.50;;;17.90;99.90;;;;;;5101154;28;20455;-81
2023/07/27 02:30:28;;;;;;;5.50;4.70;;;17.90;99.90;;;;;;5101451;28;20694;-79
2023/07/27 02:32:54;;;;;;;6.07;5.40;;;17.90;99.90;;;;;;5085960;28;20375;-80
2023/07/27 02:35:20;;;;;;;6.20;4.53;;;17.90;99.90;;;;;;5086132;28;20177;-73
2023/07/27 02:37:45;;;;;;;7.60;5.00;;;17.90;99.90;;;;;;5085783;28;20211;-80
2023/07/27 02:40:11;;;;;;;6.07;4.53;;;17.90;99.90;;;;;;5101178;28;20413;-77
2023/07/27 02:42:36;;;;;;;7.27;4.80;;;17.80;99.90;;;;;;5101380;28;20431;-81
2023/07/27 02:45:02;;;;;;;5.10;4.43;;;17.90;99.90;;;;;;5085696;28;20208;-74
2023/07/27 02:47:28;;;;;;;6.53;4.60;;;17.90;99.90;;;;;;5085652;28;20518;-80
2023/07/27 02:49:54;;;;;;;11.60;4.80;;;17.90;99.90;;;;;;5100889;28;20932;-74
2023/07/27 02:52:19;;;;;;;8.03;5.53;;;17.90;99.90;;;;;;5085804;28;20198;-75
2023/07/27 02:54:45;;;;;;;5.50;4.83;;;17.90;99.90;;;;;;5085342;28;20220;-73
2023/07/27 02:57:10;;;;;;;4.90;4.33;;;17.90;99.90;;;;;;5100870;28;20201;-80
2023/07/27 02:59:36;;;;;;;5.23;4.50;;;18.00;99.90;;;;;;5085606;28;20672;-80
2023/07/27 03:02:02;;;;;;;6.00;4.40;;;18.20;99.90;;;;;;5085500;28;20196;-80
2023/07/27 03:04:27;;;;;;;7.03;4.80;;;18.30;99.90;;;;;;5101009;28;20196;-79
2023/07/27 03:06:53;;;;;;;9.67;4.70;;;18.50;99.90;;;;;;5085023;28;20275;-74
2023/07/27 03:09:19;;;;;;;6.53;5.07;;;18.60;99.90;;;;;;5101053;28;20176;-75
2023/07/27 03:11:44;;;;;;;6.83;5.20;;;18.70;99.90;;;;;;5085303;28;20233;-74
2023/07/27 03:14:10;;;;;;;5.30;4.80;;;18.80;99.90;;;;;;5100767;28;20598;-73
2023/07/27 03:16:35;;;;;;;7.33;5.07;;;18.80;99.90;;;;;;5100548;28;20177;-80
2023/07/27 03:19:01;;;;;;;7.83;5.23;;;18.90;99.90;;;;;;5085177;28;20181;-74
2023/07/27 03:21:27;;;;;;;7.90;5.47;;;19.00;99.90;;;;;;5085781;28;20251;-74
2023/07/27 03:23:52;;;;;;;6.03;5.20;;;19.00;99.90;;;;;;5100856;28;20584;-80
2023/07/27 03:26:18;;;;;;;6.10;5.37;;;19.10;99.90;;;;;;5083810;28;20197;-79
2023/07/27 03:28:44;;;;;;;5.37;4.77;;;19.10;99.90;;;;;;5100568;28;20854;-80
2023/07/27 03:31:28;;;;;;;6.13;4.33;;;19.20;99.90;;;;;;5085657;28;20174;-74
2023/07/27 03:33:54;;;;;;;5.57;4.60;;;19.20;99.90;;;;;;5085284;28;20516;-74
2023/07/27 03:36:20;;;;;;;5.73;5.00;;;19.20;99.90;;;;;;5083718;28;20462;-74
2023/07/27 03:38:46;;;;;;;6.77;5.40;;;19.20;99.90;;;;;;5084459;28;20234;-74
2023/07/27 03:41:13;;;;;;;5.67;4.50;;;19.20;99.90;;;;;;5100514;28;20485;-74
2023/07/27 03:43:39;;;;;;;7.00;5.50;;;19.20;99.90;;;;;;5099761;28;20483;-74
2023/07/27 03:46:04;;;;;;;5.93;5.33;;;19.20;99.90;;;;;;5100325;28;20414;-74
2023/07/27 03:48:30;;;;;;;6.50;5.00;;;19.20;99.90;;;;;;5081848;28;20551;-80
2023/07/27 03:50:59;;;;;;;5.50;4.50;;;19.20;99.90;;;;;;5078388;28;20587;-80
2023/07/27 03:53:26;;;;;;;6.10;4.60;;;19.10;99.90;;;;;;5077494;28;20208;-74
2023/07/27 03:55:51;;;;;;;5.47;4.83;;;19.10;99.90;;;;;;5076918;28;20523;-74
2023/07/27 03:58:17;;;;;;;7.50;5.23;;;19.00;99.90;;;;;;5088610;28;20565;-74
2023/07/27 04:00:43;;;;;;;30.47;18.93;;;19.00;99.90;;;;;;5086011;28;20191;-79
2023/07/27 04:03:08;;;;;;;6.10;4.90;;;19.00;99.90;;;;;;5088445;28;20222;-74
2023/07/27 04:05:34;;;;;;;4.63;4.17;;;19.10;99.90;;;;;;5087802;28;20220;-81
2023/07/27 04:08:00;;;;;;;4.13;3.73;;;19.00;99.90;;;;;;5088346;28;20688;-81
2023/07/27 04:10:26;;;;;;;4.90;4.27;;;19.00;99.90;;;;;;5086876;28;20198;-77
2023/07/27 04:12:51;;;;;;;4.87;4.47;;;19.00;99.90;;;;;;5106711;28;20522;-74
2023/07/27 04:15:18;;;;;;;4.10;3.70;;;19.00;99.90;;;;;;5108390;28;20259;-74
2023/07/27 04:17:43;;;;;;;4.30;3.93;;;19.00;99.90;;;;;;5123831;27;20474;-74
2023/07/27 04:20:09;;;;;;;4.30;3.87;;;19.10;99.90;;;;;;5112031;27;20994;-78
2023/07/27 04:22:35;;;;;;;4.10;3.70;;;19.30;99.90;;;;;;5088358;28;20848;-80
2023/07/27 04:25:01;;;;;;;3.53;3.23;;;19.40;99.90;;;;;;5087932;28;20407;-79
2023/07/27 04:27:27;;;;;;;4.00;3.70;;;19.60;99.90;;;;;;5081913;28;20732;-81
2023/07/27 04:29:52;;;;;;;4.03;3.63;;;19.80;99.90;;;;;;5089609;28;20185;-76
2023/07/27 04:32:18;;;;;;;4.90;3.87;;;19.80;99.90;;;;;;5087432;28;20209;-73
2023/07/27 04:34:44;;;;;;;3.60;3.30;;;19.90;99.90;;;;;;5087633;28;20446;-74
2023/07/27 04:37:09;;;;;;;4.07;3.40;;;19.90;99.90;;;;;;5086795;28;20734;-80
2023/07/27 04:39:35;;;;;;;3.40;3.20;;;19.70;99.90;;;;;;5086925;28;20372;-79
2023/07/27 04:42:01;;;;;;;8.43;3.67;;;19.70;99.90;;;;;;5103167;28;20265;-74
2023/07/27 04:44:26;;;;;;;4.10;3.80;;;19.60;99.90;;;;;;5091381;28;20571;-74
2023/07/27 04:46:53;;;;;;;3.80;3.00;;;19.50;99.90;;;;;;5087009;28;20282;-74
2023/07/27 04:49:19;;;;;;;3.40;3.10;;;19.50;99.90;;;;;;5102490;28;20454;-74
2023/07/27 04:51:44;;;;;;;3.43;3.13;;;19.50;99.90;;;;;;5087206;28;20943;-80
2023/07/27 04:54:10;;;;;;;4.03;3.67;;;19.40;99.90;;;;;;5085609;28;20439;-79
2023/07/27 04:56:36;;;;;;;3.57;3.27;;;19.30;99.90;;;;;;5102738;28;20233;-80
2023/07/27 04:59:01;;;;;;;3.63;3.33;;;19.30;99.90;;;;;;5102684;28;20239;-74
2023/07/27 05:01:27;;;;;;;4.07;3.30;;;19.20;99.90;;;;;;5102940;28;20196;-74
2023/07/27 05:03:53;;;;;;;3.87;3.23;;;19.20;99.90;;;;;;5079805;28;20216;-74
2023/07/27 05:06:18;;;;;;;3.70;3.30;;;19.30;99.90;;;;;;5077094;28;20454;-80
2023/07/27 05:08:44;;;;;;;2.93;2.73;;;19.30;99.90;;;;;;5078366;28;20197;-81
2023/07/27 05:11:10;;;;;;;3.70;3.40;;;19.40;99.90;;;;;;5077965;28;20637;-75
2023/07/27 05:13:36;;;;;;;3.10;2.80;;;19.60;99.90;;;;;;5076776;28;20696;-74
2023/07/27 05:16:02;;;;;;;3.30;3.00;;;19.60;99.90;;;;;;5074467;28;20403;-80
2023/07/27 05:18:28;;;;;;;74.97;50.87;;;19.60;99.90;;;;;;5072912;28;20821;-74
2023/07/27 05:20:54;;;;;;;6.07;4.07;;;19.60;99.90;;;;;;5076506;28;20761;-75
2023/07/27 05:23:20;;;;;;;3.53;3.23;;;19.70;99.90;;;;;;5075208;28;20485;-81
2023/07/27 05:25:47;;;;;;;3.80;3.40;;;19.80;99.90;;;;;;5072732;28;20506;-74
2023/07/27 05:28:12;;;;;;;5.33;3.53;;;19.90;99.90;;;;;;5076176;28;20616;-81
2023/07/27 05:30:38;;;;;;;3.83;3.53;;;19.90;99.90;;;;;;5073389;28;20655;-80
2023/07/27 05:33:04;;;;;;;3.67;3.37;;;19.90;99.90;;;;;;5072985;28;20294;-74
2023/07/27 05:35:30;;;;;;;4.60;3.30;;;19.80;99.90;;;;;;5076043;28;20171;-80
2023/07/27 05:37:55;;;;;;;3.87;3.57;;;19.90;99.90;;;;;;5074152;28;20954;-80
2023/07/27 05:40:21;;;;;;;9.80;3.23;;;20.00;99.90;;;;;;5075630;28;20175;-80
2023/07/27 05:42:46;;;;;;;4.87;3.30;;;20.20;99.90;;;;;;5076018;28;20234;-81
2023/07/27 05:45:12;;;;;;;4.00;3.20;;;20.20;99.90;;;;;;5083769;28;20258;-81
2023/07/27 05:47:38;;;;;;;3.60;3.17;;;20.30;99.90;;;;;;5079552;28;20259;-81
2023/07/27 05:50:04;;;;;;;3.40;3.10;;;20.50;99.90;;;;;;5083442;28;21025;-80
2023/07/27 05:52:30;;;;;;;3.77;3.30;;;20.50;99.90;;;;;;5067984;28;20731;-81
2023/07/27 05:54:55;;;;;;;106.03;62.07;;;20.60;99.90;;;;;;5064243;28;20412;-81
2023/07/27 05:57:21;;;;;;;4.27;3.43;;;20.50;99.90;;;;;;5061479;28;20669;-81
2023/07/27 05:59:47;;;;;;;4.83;3.30;;;20.60;99.90;;;;;;5064017;28;20323;-74
2023/07/27 06:02:12;;;;;;;2.97;2.77;;;20.60;99.90;;;;;;5081430;28;20237;-81
2023/07/27 06:04:38;;;;;;;2.83;2.63;;;20.60;99.90;;;;;;5077573;28;20191;-75
2023/07/27 06:07:05;;;;;;;3.70;3.07;;;20.70;99.90;;;;;;5078938;28;20230;-75
2023/07/27 06:09:31;;;;;;;3.47;3.17;;;20.70;99.90;;;;;;5075950;28;20326;-81
2023/07/27 06:11:56;;;;;;;3.17;2.97;;;20.70;99.90;;;;;;5072218;28;20819;-75
2023/07/27 06:14:22;;;;;;;2.87;2.67;;;20.70;99.90;;;;;;5074204;28;20854;-76
2023/07/27 06:16:48;;;;;;;3.20;3.00;;;20.80;99.90;;;;;;5061688;28;20753;-75
2023/07/27 06:19:14;;;;;;;2.70;2.50;;;20.90;99.90;;;;;;5081166;28;20910;-75
2023/07/27 06:21:39;;;;;;;5.10;3.10;;;21.00;99.90;;;;;;5082486;28;20645;-77
2023/07/27 06:24:05;;;;;;;3.63;3.33;;;21.10;99.90;;;;;;5097140;28;20741;-76
2023/07/27 06:26:31;;;;;;;4.70;3.10;;;21.10;99.90;;;;;;5081475;28;20186;-75
2023/07/27 06:28:58;;;;;;;3.63;3.00;;;21.10;99.90;;;;;;5098443;28;20585;-81
2023/07/27 06:31:24;;;;;;;2.80;2.60;;;21.10;99.90;;;;;;5099314;28;20168;-75
2023/07/27 06:33:50;;;;;;;3.43;2.73;;;21.20;99.90;;;;;;5082504;28;20450;-80
2023/07/27 06:36:17;;;;;;;3.07;2.77;;;21.20;99.90;;;;;;5099844;28;20408;-80
2023/07/27 06:38:43;;;;;;;3.37;3.07;;;21.30;99.90;;;;;;5098734;28;20208;-76
2023/07/27 06:41:09;;;;;;;21.63;14.93;;;21.40;99.90;;;;;;5084257;28;20496;-76
2023/07/27 06:43:35;;;;;;;6.10;5.60;;;21.40;99.90;;;;;;5069005;28;20481;-80
2023/07/27 06:46:00;;;;;;;2.80;2.60;;;21.50;99.90;;;;;;5063846;28;20405;-79
2023/07/27 06:48:26;;;;;;;2.93;2.73;;;21.50;99.90;;;;;;5079892;28;20656;-76
2023/07/27 06:50:52;;;;;;;2.87;2.47;;;21.60;99.90;;;;;;5079226;28;20547;-81
2023/07/27 06:53:18;;;;;;;3.50;2.53;;;21.70;99.90;;;;;;5081324;28;20458;-76
2023/07/27 06:55:44;;;;;;;3.30;2.60;;;21.80;99.90;;;;;;5079586;28;20654;-80
2023/07/27 06:58:09;;;;;;;2.97;2.50;;;21.80;99.90;;;;;;5080172;28;20419;-76
2023/07/27 07:00:35;;;;;;;3.17;2.90;;;21.90;99.90;;;;;;5079002;28;20208;-80
2023/07/27 07:03:00;;;;;;;2.70;2.50;;;21.90;99.90;;;;;;5075149;28;20604;-81
2023/07/27 07:05:26;;;;;;;4.73;3.40;;;22.00;99.90;;;;;;5080533;28;20349;-78
2023/07/27 07:07:52;;;;;;;4.80;3.10;;;22.10;99.90;;;;;;5076483;28;20389;-81
2023/07/27 07:10:18;;;;;;;2.80;2.60;;;22.10;99.90;;;;;;5078663;28;20192;-77
2023/07/27 07:12:44;;;;;;;3.50;3.20;;;22.10;99.90;;;;;;5077430;28;20966;-76
2023/07/27 07:15:10;;;;;;;2.87;2.57;;;22.20;99.90;;;;;;5076593;28;20424;-82
2023/07/27 07:17:36;;;;;;;2.70;2.50;;;22.20;99.90;;;;;;5081621;28;20298;-82
2023/07/27 07:20:06;;;;;;;2.87;2.37;;;22.30;99.90;;;;;;5074414;28;20977;-75
2023/07/27 07:22:32;;;;;;;2.50;2.30;;;22.30;99.90;;;;;;5073843;28;20774;-75
2023/07/27 07:24:58;;;;;;;2.80;2.60;;;22.30;99.90;;;;;;5077687;28;20456;-75
2023/07/27 07:27:23;;;;;;;3.60;3.00;;;22.40;99.90;;;;;;5078467;28;20242;-83
2023/07/27 07:29:49;;;;;;;5.00;2.80;;;22.40;99.90;;;;;;5079543;28;20421;-76
2023/07/27 07:32:15;;;;;;;3.90;2.77;;;22.50;99.90;;;;;;5071248;28;20216;-82
2023/07/27 07:34:40;;;;;;;6.43;2.60;;;22.50;99.90;;;;;;5076900;28;20554;-77
2023/07/27 07:37:06;;;;;;;3.30;3.00;;;22.60;99.90;;;;;;5075514;28;20261;-75
2023/07/27 07:39:32;;;;;;;3.40;2.90;;;22.60;99.90;;;;;;5080618;28;20172;-76
2023/07/27 07:41:59;;;;;;;12.40;5.87;;;22.70;99.90;;;;;;5082967;28;20602;-75
2023/07/27 07:44:24;;;;;;;7.73;4.90;;;22.70;99.90;;;;;;5079005;28;20218;-82
2023/07/27 07:46:50;;;;;;;2.77;2.57;;;22.70;99.90;;;;;;5076831;28;20453;-76
2023/07/27 07:49:16;;;;;;;2.70;2.57;;;22.80;99.90;;;;;;5084256;28;20657;-81
2023/07/27 07:51:41;;;;;;;3.70;3.40;;;22.80;99.90;;;;;;5085262;28;20173;-81
2023/07/27 07:54:07;;;;;;;3.70;2.73;;;22.90;99.90;;;;;;5080795;28;20706;-82
2023/07/27 07:56:33;;;;;;;2.90;2.70;;;22.90;99.90;;;;;;5074110;28;20169;-75
2023/07/27 07:58:59;;;;;;;3.10;2.40;;;22.90;99.90;;;;;;5080098;28;20461;-81
2023/07/27 08:01:24;;;;;;;2.57;2.37;;;23.00;99.90;;;;;;5083654;28;20582;-82
2023/07/27 08:03:50;;;;;;;3.30;2.40;;;23.00;99.90;;;;;;5084272;28;20302;-81
2023/07/27 08:06:17;;;;;;;2.90;2.60;;;23.10;99.90;;;;;;5086636;28;20176;-78
2023/07/27 08:08:43;;;;;;;3.17;2.30;;;23.10;99.90;;;;;;5082849;28;20300;-76
2023/07/27 08:11:09;;;;;;;4.10;2.83;;;23.10;99.90;;;;;;5081234;28;20982;-82
2023/07/27 08:13:35;;;;;;;3.90;2.90;;;23.10;99.90;;;;;;5081170;28;20616;-82
2023/07/27 08:16:03;;;;;;;2.47;2.27;;;23.20;99.90;;;;;;5081187;28;20205;-82
2023/07/27 08:18:29;;;;;;;2.73;2.50;;;23.20;99.90;;;;;;5082094;28;20254;-82
2023/07/27 08:21:03;;;;;;;3.10;2.90;;;23.30;99.90;;;;;;5077472;28;20440;-81
2023/07/27 08:23:29;;;;;;;2.77;2.20;;;23.30;99.90;;;;;;5073209;28;20510;-75
2023/07/27 08:25:56;;;;;;;3.10;2.43;;;23.30;99.90;;;;;;5075752;28;20578;-75
2023/07/27 08:28:22;;;;;;;2.57;2.37;;;23.40;99.90;;;;;;5079962;28;20213;-82
2023/07/27 08:30:49;;;;;;;2.50;2.30;;;23.40;99.90;;;;;;5072960;28;20801;-77
2023/07/27 08:33:15;;;;;;;2.20;2.10;;;23.40;99.90;;;;;;5081698;28;20205;-76
2023/07/27 08:35:40;;;;;;;2.53;2.33;;;23.50;99.90;;;;;;5072159;28;20405;-75
2023/07/27 08:38:06;;;;;;;2.57;2.37;;;23.60;99.90;;;;;;5074586;28;20260;-75
2023/07/27 08:40:32;;;;;;;2.77;2.23;;;23.70;99.90;;;;;;5079566;28;20181;-75
2023/07/27 08:42:58;;;;;;;2.90;2.30;;;23.80;99.90;;;;;;5080688;28;20703;-75
2023/07/27 08:45:24;;;;;;;3.40;2.67;;;23.80;99.90;;;;;;5080896;28;20187;-81
2023/07/27 08:47:52;;;;;;;2.30;2.10;;;23.90;99.90;;;;;;5079746;28;20206;-75
2023/07/27 08:50:19;;;;;;;2.40;2.20;;;23.90;99.90;;;;;;5079607;28;20638;-82
2023/07/27 08:52:46;;;;;;;3.60;2.40;;;24.00;99.90;;;;;;5074512;28;21026;-75
2023/07/27 08:55:11;;;;;;;2.50;2.30;;;24.10;99.90;;;;;;5071414;28;20423;-82
2023/07/27 08:57:37;;;;;;;3.10;2.40;;;24.20;99.90;;;;;;5081450;28;20464;-75
2023/07/27 09:00:04;;;;;;;4.37;2.30;;;24.30;99.90;;;;;;5081103;28;20225;-82
2023/07/27 09:02:29;;;;;;;2.73;1.70;;;24.30;99.90;;;;;;5080914;28;21006;-75
2023/07/27 09:04:55;;;;;;;2.37;2.17;;;24.40;99.90;;;;;;5078794;28;20653;-82
2023/07/27 09:07:21;;;;;;;3.40;2.87;;;24.40;99.90;;;;;;5076959;28;20207;-75
2023/07/27 09:09:51;;;;;;;2.60;2.20;;;24.50;99.90;;;;;;5079914;28;20493;-81
2023/07/27 09:12:18;;;;;;;2.43;2.10;;;24.60;99.90;;;;;;5079383;28;20196;-82
2023/07/27 09:14:44;;;;;;;2.00;1.90;;;24.60;99.90;;;;;;5079596;28;20423;-82
2023/07/27 09:17:13;;;;;;;2.20;1.90;;;24.60;99.90;;;;;;5081179;28;20455;-82
2023/07/27 09:19:43;;;;;;;2.20;1.97;;;24.70;99.90;;;;;;5081453;28;20709;-75
2023/07/27 09:22:10;;;;;;;2.43;2.23;;;24.70;99.90;;;;;;5081019;28;20451;-75
2023/07/27 09:24:36;;;;;;;2.00;1.67;;;24.80;99.90;;;;;;5067564;28;20460;-82
2023/07/27 09:27:14;;;;;;;2.20;2.00;;;24.90;99.90;;;;;;5080236;28;20448;-82
2023/07/27 09:29:41;;;;;;;2.23;2.10;;;24.90;99.90;;;;;;5079915;28;20270;-81
2023/07/27 09:32:09;;;;;;;2.10;1.90;;;24.90;99.90;;;;;;5079506;28;20509;-81
2023/07/27 09:34:35;;;;;;;3.20;2.07;;;25.00;99.90;;;;;;5082447;28;20681;-82
2023/07/27 09:37:05;;;;;;;2.50;1.53;;;25.00;99.90;;;;;;5082409;28;20876;-82
2023/07/27 09:39:35;;;;;;;1.70;1.60;;;25.10;99.90;;;;;;5081189;28;20179;-81
2023/07/27 09:42:03;;;;;;;2.17;1.90;;;25.10;99.90;;;;;;5073494;28;20501;-74
2023/07/27 09:44:29;;;;;;;1.70;1.60;;;25.10;99.90;;;;;;5081179;28;20814;-81
2023/07/27 09:46:54;;;;;;;3.13;1.87;;;25.20;99.90;;;;;;5082165;28;20807;-78
2023/07/27 09:49:21;;;;;;;1.93;1.70;;;25.20;99.90;;;;;;5083137;28;20784;-74
2023/07/27 09:51:50;;;;;;;1.70;1.60;;;25.10;99.90;;;;;;5079551;28;20211;-82
2023/07/27 09:54:17;;;;;;;3.00;1.80;;;25.20;99.90;;;;;;5081522;28;20435;-75
2023/07/27 09:56:44;;;;;;;2.27;2.07;;;25.20;99.90;;;;;;5068425;28;20501;-74
2023/07/27 09:59:12;;;;;;;2.07;1.87;;;25.20;99.90;;;;;;5078471;28;21086;-81
2023/07/27 10:01:38;;;;;;;2.80;1.80;;;25.30;99.90;;;;;;5074044;28;20436;-74
2023/07/27 10:04:04;;;;;;;2.80;2.00;;;25.30;99.90;;;;;;5079456;28;20840;-81
2023/07/27 10:06:30;;;;;;;2.20;2.00;;;25.30;99.90;;;;;;5078158;28;20302;-74
2023/07/27 10:08:56;;;;;;;2.27;1.80;;;25.40;99.90;;;;;;5078516;28;20177;-75
2023/07/27 10:11:59;;;;;;;3.10;2.00;;;25.40;99.90;;;;;;5070753;28;21014;-81
2023/07/27 10:14:27;;;;;;;2.23;2.03;;;25.40;99.90;;;;;;5056378;28;20482;-81
2023/07/27 10:17:07;;;;;;;2.10;1.83;;;25.50;99.90;;;;;;5056661;28;20919;-75
2023/07/27 10:19:42;;;;;;;1.97;1.87;;;25.60;99.90;;;;;;5071519;28;20435;-75
2023/07/27 10:22:11;;;;;;;2.10;1.90;;;25.60;99.90;;;;;;5057856;28;20633;-82
2023/07/27 10:24:52;;;;;;;1.70;1.60;;;25.60;99.90;;;;;;5075115;28;21008;-75
2023/07/27 10:27:21;;;;;;;3.07;2.33;;;25.60;99.90;;;;;;5076515;28;20932;-81
2023/07/27 10:30:11;;;;;;;1.60;1.50;;;25.60;99.90;;;;;;5087896;28;20441;-81
2023/07/27 10:32:37;;;;;;;1.80;1.70;;;25.70;99.90;;;;;;5060610;28;20422;-74
2023/07/27 10:35:07;;;;;;;2.43;2.23;;;25.70;99.90;;;;;;5073995;28;21003;-82
2023/07/27 10:37:53;;;;;;;2.47;2.27;;;25.70;99.90;;;;;;5075620;28;20461;-82
2023/07/27 10:40:26;;;;;;;2.40;1.87;;;25.70;99.90;;;;;;5079253;28;20429;-74
2023/07/27 10:42:58;;;;;;;1.87;1.77;;;25.80;99.40;;;;;;5081773;28;21038;-74
2023/07/27 10:45:25;;;;;;;1.83;1.73;;;25.80;96.40;;;;;;5077846;28;21069;-74
2023/07/27 10:47:56;;;;;;;2.33;2.13;;;25.80;96.70;;;;;;5079647;28;20467;-81
2023/07/27 10:50:22;;;;;;;3.10;1.60;;;25.80;99.20;;;;;;5080470;28;20981;-74
2023/07/27 10:52:51;;;;;;;4.10;1.70;;;25.70;99.90;;;;;;5078120;28;20450;-81
2023/07/27 10:55:19;;;;;;;1.90;1.80;;;25.80;99.90;;;;;;5069869;28;20786;-74
2023/07/27 10:57:46;;;;;;;2.10;1.87;;;25.80;99.50;;;;;;5073884;28;20739;-75
2023/07/27 11:00:13;;;;;;;2.53;2.30;;;25.80;99.90;;;;;;5078583;28;20627;-75
2023/07/27 11:02:42;;;;;;;2.40;2.20;;;25.80;99.60;;;;;;5073627;28;20678;-74
2023/07/27 11:05:11;;;;;;;2.00;1.90;;;25.80;97.00;;;;;;5068532;28;20428;-74
2023/07/27 11:07:39;;;;;;;2.20;2.00;;;25.80;99.40;;;;;;5069418;28;21267;-82
2023/07/27 11:10:09;;;;;;;1.73;1.63;;;25.80;93.80;;;;;;5074327;28;20875;-82
2023/07/27 11:12:51;;;;;;;2.17;1.63;;;25.80;92.70;;;;;;5073390;28;20744;-82
2023/07/27 11:15:25;;;;;;;2.13;2.03;;;25.80;95.30;;;;;;5076962;28;20420;-82
2023/07/27 11:17:53;;;;;;;1.80;1.70;;;25.90;93.50;;;;;;5068410;28;20432;-82
2023/07/27 11:20:21;;;;;;;2.10;1.90;;;25.90;93.60;;;;;;5079535;28;20432;-82
2023/07/27 11:22:48;;;;;;;2.23;1.80;;;25.80;96.40;;;;;;5081643;28;20957;-82
2023/07/27 11:25:14;;;;;;;2.40;2.30;;;25.90;93.30;;;;;;5082731;28;20558;-82
2023/07/27 11:27:39;;;;;;;2.70;1.80;;;25.90;96.40;;;;;;5078071;28;20993;-82
2023/07/27 11:30:09;;;;;;;2.83;2.03;;;25.80;96.90;;;;;;5081840;28;20229;-75
2023/07/27 11:32:35;;;;;;;1.90;1.80;;;25.80;93.30;;;;;;5076378;28;20208;-75
2023/07/27 11:35:00;;;;;;;2.23;2.03;;;25.80;97.60;;;;;;5092845;28;20860;-75
2023/07/27 11:37:29;;;;;;;2.17;1.97;;;25.80;96.00;;;;;;5079256;28;20444;-82
2023/07/27 11:39:56;;;;;;;2.27;2.07;;;25.90;95.30;;;;;;5079755;28;20203;-74
2023/07/27 11:42:38;;;;;;;2.20;2.00;;;25.90;95.20;;;;;;5077993;28;20476;-81
2023/07/27 11:45:05;;;;;;;2.40;1.67;;;25.90;93.00;;;;;;5091853;28;20444;-75
2023/07/27 11:47:40;;;;;;;1.73;1.63;;;26.00;95.10;;;;;;5078410;28;20687;-75
2023/07/27 11:50:08;;;;;;;2.50;2.30;;;26.00;96.60;;;;;;5077321;28;20623;-75
2023/07/27 11:52:36;;;;;;;2.53;2.33;;;26.00;97.30;;;;;;5076718;28;20543;-74
2023/07/27 11:55:02;;;;;;;2.70;2.50;;;26.00;99.60;;;;;;5071739;28;20522;-82
2023/07/27 11:57:29;;;;;;;2.70;2.50;;;26.00;94.90;;;;;;5081411;28;20484;-82
2023/07/27 12:00:03;;;;;;;3.57;2.80;;;26.10;97.10;;;;;;5083088;28;20637;-82
2023/07/27 12:02:32;;;;;;;2.30;2.17;;;26.10;97.80;;;;;;5084380;28;21049;-82
2023/07/27 12:05:02;;;;;;;2.40;2.20;;;26.10;97.40;;;;;;5082326;28;20433;-75
2023/07/27 12:07:32;;;;;;;2.67;2.40;;;26.10;98.70;;;;;;5082701;28;20805;-82
2023/07/27 12:09:58;;;;;;;2.20;2.00;;;26.10;91.90;;;;;;5082522;28;20526;-82
2023/07/27 12:12:24;;;;;;;2.80;2.20;;;26.10;96.40;;;;;;5073937;28;21161;-75
2023/07/27 12:14:54;;;;;;;1.80;1.60;;;26.10;91.50;;;;;;5076559;28;20263;-74
2023/07/27 12:17:23;;;;;;;2.53;2.20;;;26.10;93.40;;;;;;5082267;28;20299;-75
2023/07/27 12:19:48;;;;;;;3.23;2.40;;;26.20;94.50;;;;;;5067620;28;20418;-82
2023/07/27 12:22:14;;;;;;;1.70;1.53;;;26.20;90.90;;;;;;5075164;28;20465;-82
2023/07/27 12:24:44;;;;;;;1.80;1.70;;;26.20;91.70;;;;;;5072426;28;20285;-75
2023/07/27 12:27:10;;;;;;;1.60;1.50;;;26.30;89.60;;;;;;5074742;28;20468;-74
2023/07/27 12:29:36;;;;;;;2.10;1.63;;;26.20;90.90;;;;;;5078015;28;20508;-81
2023/07/27 12:32:01;;;;;;;2.27;2.07;;;26.30;93.20;;;;;;5091937;28;20240;-74
2023/07/27 12:34:27;;;;;;;3.87;1.80;;;26.30;90.60;;;;;;5074650;28;20248;-78
2023/07/27 12:36:52;;;;;;;4.33;1.80;;;26.30;93.00;;;;;;5076825;28;20207;-75
2023/07/27 12:39:19;;;;;;;2.33;1.87;;;26.30;93.40;;;;;;5072737;28;20189;-80
2023/07/27 12:41:45;;;;;;;2.40;1.60;;;26.40;93.60;;;;;;5067148;28;20229;-81
2023/07/27 12:44:10;;;;;;;2.43;2.03;;;26.40;93.90;;;;;;5077663;28;21016;-75
2023/07/27 12:46:36;;;;;;;3.40;1.60;;;26.40;94.10;;;;;;5076536;28;20204;-82